createdAt,value
2019-05-09T00:00:56.927Z,1.90
2019-05-09T00:03:00.516Z,1.60
2019-05-09T00:05:04.639Z,2.03
2019-05-09T00:07:08.358Z,1.80
2019-05-09T00:09:13.849Z,2.23
2019-05-09T00:11:17.386Z,2.43
2019-05-09T00:13:20.957Z,2.20
2019-05-09T00:15:24.754Z,1.90
2019-05-09T00:17:28.388Z,1.80
2019-05-09T00:19:33.349Z,1.60
2019-05-09T00:21:38.910Z,2.00
2019-05-09T00:23:43.724Z,1.73
2019-05-09T00:25:47.455Z,1.70
2019-05-09T00:27:51.180Z,1.80
2019-05-09T00:29:55.035Z,1.90
2019-05-09T00:32:00.365Z,1.87
2019-05-09T00:34:05.709Z,1.90
2019-05-09T00:36:09.343Z,1.60
2019-05-09T00:38:13.374Z,1.97
2019-05-09T00:40:17.050Z,1.60
2019-05-09T00:42:20.664Z,1.60
2019-05-09T00:44:28.653Z,1.70
2019-05-09T00:46:34.119Z,1.70
2019-05-09T00:48:39.433Z,1.57
2019-05-09T00:50:43.722Z,1.80
2019-05-09T00:52:47.567Z,1.67
2019-05-09T00:54:53.153Z,1.53
2019-05-09T00:56:56.546Z,2.20
2019-05-09T00:59:00.216Z,1.80
2019-05-09T01:01:04.569Z,1.80
2019-05-09T01:03:08.353Z,1.90
2019-05-09T01:05:13.205Z,1.83
2019-05-09T01:07:17.153Z,2.00
2019-05-09T01:09:20.881Z,1.43
2019-05-09T01:11:24.623Z,2.00
2019-05-09T01:13:28.268Z,1.57
2019-05-09T01:15:33.935Z,1.93
2019-05-09T01:17:37.399Z,2.00
2019-05-09T01:19:43.112Z,2.17
2019-05-09T01:21:46.334Z,1.53
2019-05-09T01:23:50.069Z,1.80
2019-05-09T01:25:53.741Z,1.50
2019-05-09T01:27:57.421Z,1.70
2019-05-09T01:30:01.096Z,1.83
2019-05-09T01:32:06.508Z,1.63
2019-05-09T01:34:17.639Z,1.90
2019-05-09T01:36:23.322Z,2.00
2019-05-09T01:38:26.672Z,1.50
2019-05-09T01:40:30.316Z,1.70
2019-05-09T01:42:34.142Z,1.50
2019-05-09T01:44:38.929Z,1.60
2019-05-09T01:46:43.635Z,1.87
2019-05-09T01:48:47.470Z,1.57
2019-05-09T01:50:51.111Z,1.67
2019-05-09T01:52:54.716Z,1.50
2019-05-09T01:54:58.288Z,1.57
2019-05-09T01:57:03.311Z,1.80
2019-05-09T01:59:07.381Z,1.80
2019-05-09T02:01:13.245Z,1.50
2019-05-09T02:03:16.570Z,1.53
2019-05-09T02:05:20.796Z,1.67
2019-05-09T02:07:24.526Z,1.30
2019-05-09T02:09:28.287Z,1.40
2019-05-09T02:11:41.675Z,1.53
2019-05-09T02:13:37.166Z,1.80
2019-05-09T02:15:58.632Z,1.53
2019-05-09T02:18:05.243Z,1.90
2019-05-09T02:20:09.383Z,1.50
2019-05-09T02:22:31.031Z,1.47
2019-05-09T02:24:34.854Z,1.67
2019-05-09T02:26:38.584Z,1.70
2019-05-09T02:28:43.261Z,1.40
2019-05-09T02:30:47.119Z,1.33
2019-05-09T02:32:50.791Z,1.60
2019-05-09T02:34:54.959Z,1.57
2019-05-09T02:36:58.846Z,2.20
2019-05-09T02:39:02.495Z,1.30
2019-05-09T02:41:08.515Z,1.80
2019-05-09T02:43:11.602Z,1.23
2019-05-09T02:45:18.508Z,1.83
2019-05-09T02:47:23.280Z,1.50
2019-05-09T02:49:28.736Z,1.47
2019-05-09T02:51:32.376Z,1.63
2019-05-09T02:53:39.105Z,2.00
2019-05-09T02:55:41.474Z,1.30
2019-05-09T02:57:48.769Z,1.40
2019-05-09T02:59:53.082Z,1.83
2019-05-09T03:02:14.482Z,1.50
2019-05-09T03:04:18.898Z,1.57
2019-05-09T03:06:22.667Z,1.50
2019-05-09T03:08:29.361Z,1.97
2019-05-09T03:10:31.636Z,1.40
2019-05-09T03:12:36.671Z,1.47
2019-05-09T03:14:40.935Z,1.90
2019-05-09T03:16:44.734Z,1.57
2019-05-09T03:18:49.364Z,1.60
2019-05-09T03:20:58.250Z,1.67
2019-05-09T03:23:01.846Z,1.10
2019-05-09T03:25:08.814Z,1.50
2019-05-09T03:27:13.020Z,1.70
2019-05-09T03:29:29.211Z,1.80
2019-05-09T03:31:39.420Z,1.50
2019-05-09T03:33:42.374Z,1.63
2019-05-09T03:35:48.101Z,1.50
2019-05-09T03:38:08.163Z,1.30
2019-05-09T03:40:11.361Z,1.87
2019-05-09T03:42:18.100Z,1.47
2019-05-09T03:44:20.446Z,1.50
2019-05-09T03:46:28.630Z,4.57
2019-05-09T03:48:34.011Z,5.10
2019-05-09T03:50:38.577Z,6.90
2019-05-09T03:52:42.509Z,5.33
2019-05-09T03:54:47.734Z,4.30
2019-05-09T03:56:57.224Z,3.03
2019-05-09T03:59:01.038Z,2.30
2019-05-09T04:01:05.382Z,2.37
2019-05-09T04:03:09.061Z,3.20
2019-05-09T04:05:12.813Z,2.23
2019-05-09T04:07:18.513Z,1.80
2019-05-09T04:09:21.782Z,2.20
2019-05-09T04:11:27.524Z,2.10
2019-05-09T04:13:32.296Z,1.90
2019-05-09T04:15:37.895Z,2.43
2019-05-09T04:17:44.723Z,1.77
2019-05-09T04:19:48.348Z,2.00
2019-05-09T04:21:51.994Z,1.63
2019-05-09T04:23:55.633Z,3.90
2019-05-09T04:26:08.666Z,3.40
2019-05-09T04:28:12.023Z,2.00
2019-05-09T04:30:15.726Z,1.83
2019-05-09T04:32:19.493Z,1.57
2019-05-09T04:34:23.139Z,1.80
2019-05-09T04:36:39.090Z,1.63
2019-05-09T04:38:43.071Z,1.90
2019-05-09T04:40:48.829Z,1.90
2019-05-09T04:42:52.747Z,1.77
2019-05-09T04:45:03.224Z,1.50
2019-05-09T04:47:04.046Z,1.70
2019-05-09T04:49:08.280Z,2.20
2019-05-09T04:51:12.224Z,2.13
2019-05-09T04:53:18.144Z,1.87
2019-05-09T04:55:22.768Z,1.77
2019-05-09T04:57:27.983Z,1.83
2019-05-09T04:59:31.829Z,1.70
2019-05-09T05:01:52.586Z,1.60
2019-05-09T05:03:57.718Z,1.80
2019-05-09T05:06:01.570Z,1.70
2019-05-09T05:08:07.480Z,1.40
2019-05-09T05:10:10.839Z,1.40
2019-05-09T05:12:14.660Z,1.80
2019-05-09T05:14:24.099Z,1.70
2019-05-09T05:16:28.094Z,1.60
2019-05-09T05:18:31.932Z,2.10
2019-05-09T05:20:37.968Z,1.80
2019-05-09T05:22:49.273Z,1.40
2019-05-09T05:24:56.076Z,1.70
2019-05-09T05:27:00.223Z,1.97
2019-05-09T05:29:04.163Z,1.97
2019-05-09T05:31:08.094Z,2.37
2019-05-09T05:33:13.551Z,1.97
2019-05-09T05:35:19.024Z,1.63
2019-05-09T05:37:22.894Z,1.63
2019-05-09T05:39:28.335Z,1.60
2019-05-09T05:41:34.182Z,1.83
2019-05-09T05:43:44.094Z,1.80
2019-05-09T05:45:45.223Z,1.60
2019-05-09T05:47:57.635Z,1.90
2019-05-09T05:50:01.621Z,1.87
2019-05-09T05:52:07.815Z,2.20
2019-05-09T05:54:11.010Z,1.67
2019-05-09T05:56:14.907Z,1.60
2019-05-09T05:58:18.880Z,1.80
2019-05-09T06:00:24.674Z,2.53
2019-05-09T06:02:28.481Z,1.87
2019-05-09T06:04:32.339Z,2.37
2019-05-09T06:06:37.505Z,2.17
2019-05-09T06:08:41.440Z,1.93
2019-05-09T06:10:45.238Z,1.63
2019-05-09T06:12:49.079Z,1.73
2019-05-09T06:14:52.985Z,2.00
2019-05-09T06:16:58.757Z,2.17
2019-05-09T06:19:03.237Z,1.77
2019-05-09T06:21:08.875Z,2.03
2019-05-09T06:23:12.591Z,2.20
2019-05-09T06:25:20.542Z,2.10
2019-05-09T06:27:22.082Z,1.80
2019-05-09T06:29:28.571Z,1.83
2019-05-09T06:31:31.627Z,2.53
2019-05-09T06:33:35.519Z,2.77
2019-05-09T06:35:39.466Z,3.07
2019-05-09T06:37:43.509Z,2.37
2019-05-09T06:39:48.583Z,2.97
2019-05-09T06:41:52.600Z,2.40
2019-05-09T06:44:13.307Z,2.87
2019-05-09T06:46:18.261Z,3.23
2019-05-09T06:48:22.236Z,3.43
2019-05-09T06:50:27.305Z,3.10
2019-05-09T06:52:31.433Z,3.57
2019-05-09T06:54:35.300Z,2.43
2019-05-09T06:56:39.184Z,2.50
2019-05-09T06:58:43.681Z,2.10
2019-05-09T07:00:52.107Z,2.40
2019-05-09T07:03:00.940Z,1.67
2019-05-09T07:05:22.520Z,2.13
2019-05-09T07:07:30.963Z,2.37
2019-05-09T07:09:39.377Z,2.20
2019-05-09T07:11:43.205Z,2.60
2019-05-09T07:13:47.291Z,1.87
2019-05-09T07:15:51.269Z,2.10
2019-05-09T07:17:57.368Z,1.87
2019-05-09T07:20:00.698Z,1.80
2019-05-09T07:22:09.368Z,2.17
2019-05-09T07:24:13.240Z,2.17
2019-05-09T07:26:19.757Z,1.80
2019-05-09T07:28:23.605Z,1.67
2019-05-09T07:30:29.520Z,1.50
2019-05-09T07:32:51.437Z,2.07
2019-05-09T07:35:08.665Z,1.87
2019-05-09T07:37:11.713Z,1.90
2019-05-09T07:39:17.596Z,1.30
2019-05-09T07:41:21.199Z,1.70
2019-05-09T07:43:25.078Z,1.60
2019-05-09T07:45:29.030Z,2.13
2019-05-09T07:47:32.958Z,1.70
2019-05-09T07:49:37.690Z,1.40
2019-05-09T07:51:41.821Z,1.93
2019-05-09T07:53:48.037Z,2.27
2019-05-09T07:55:51.258Z,2.00
2019-05-09T07:57:58.140Z,1.50
2019-05-09T08:00:00.971Z,1.63
2019-05-09T08:02:04.898Z,1.80
2019-05-09T08:04:08.760Z,1.47
2019-05-09T08:06:12.670Z,1.67
2019-05-09T08:08:18.531Z,1.60
2019-05-09T08:10:22.782Z,2.17
2019-05-09T08:12:28.397Z,1.50
2019-05-09T08:14:32.096Z,1.63
2019-05-09T08:16:37.870Z,1.93
2019-05-09T08:18:41.519Z,1.83
2019-05-09T08:20:45.364Z,1.63
2019-05-09T08:22:57.152Z,1.70
2019-05-09T08:24:54.731Z,2.00
2019-05-09T08:26:58.739Z,1.97
2019-05-09T08:29:02.567Z,1.70
2019-05-09T08:31:08.308Z,1.60
2019-05-09T08:33:12.009Z,1.70
2019-05-09T08:35:18.165Z,1.60
2019-05-09T08:37:21.428Z,1.70
2019-05-09T08:39:27.704Z,1.50
2019-05-09T08:41:30.783Z,2.00
2019-05-09T08:43:34.858Z,2.50
2019-05-09T08:45:38.743Z,1.87
2019-05-09T08:47:42.634Z,1.60
2019-05-09T08:49:50.929Z,1.23
2019-05-09T08:52:10.122Z,1.47
2019-05-09T08:54:01.869Z,1.40
2019-05-09T08:56:08.424Z,1.50
2019-05-09T08:58:11.250Z,1.30
2019-05-09T09:00:18.806Z,1.77
2019-05-09T09:02:22.671Z,1.87
2019-05-09T09:04:29.279Z,2.10
2019-05-09T09:06:32.280Z,1.30
2019-05-09T09:08:38.003Z,1.60
2019-05-09T09:10:41.684Z,1.90
2019-05-09T09:12:47.746Z,1.80
2019-05-09T09:14:51.167Z,1.50
2019-05-09T09:16:57.401Z,1.80
2019-05-09T09:19:00.604Z,1.60
2019-05-09T09:21:04.522Z,1.50
2019-05-09T09:23:09.068Z,1.60
2019-05-09T09:25:13.244Z,1.50
2019-05-09T09:27:18.245Z,2.00
2019-05-09T09:29:22.470Z,1.50
2019-05-09T09:31:28.346Z,1.97
2019-05-09T09:33:31.954Z,1.93
2019-05-09T09:35:38.075Z,1.40
2019-05-09T09:37:48.456Z,1.80
2019-05-09T09:39:48.873Z,1.97
2019-05-09T09:41:52.332Z,2.17
2019-05-09T09:43:58.246Z,1.37
2019-05-09T09:46:10.996Z,1.77
2019-05-09T09:48:09.137Z,1.50
2019-05-09T09:50:14.227Z,1.80
2019-05-09T09:52:18.881Z,1.40
2019-05-09T09:54:22.959Z,1.43
2019-05-09T09:56:28.172Z,1.97
2019-05-09T09:58:32.592Z,1.70
2019-05-09T10:00:43.773Z,1.80
2019-05-09T10:02:49.604Z,1.40
2019-05-09T10:04:53.284Z,1.63
2019-05-09T10:06:58.285Z,1.53
2019-05-09T10:09:02.450Z,1.70
2019-05-09T10:11:08.101Z,1.90
2019-05-09T10:13:11.800Z,1.97
2019-05-09T10:15:20.189Z,1.70
2019-05-09T10:17:38.684Z,1.70
2019-05-09T10:19:48.157Z,1.67
2019-05-09T10:21:57.813Z,2.20
2019-05-09T10:24:01.795Z,1.47
2019-05-09T10:26:08.262Z,1.40
2019-05-09T10:28:11.055Z,1.80
2019-05-09T10:30:15.108Z,1.50
2019-05-09T10:32:18.936Z,1.50
2019-05-09T10:34:22.844Z,1.33
2019-05-09T10:36:27.863Z,1.40
2019-05-09T10:38:31.907Z,2.10
2019-05-09T10:40:39.420Z,1.70
2019-05-09T10:42:42.972Z,1.67
2019-05-09T10:44:51.435Z,1.87
2019-05-09T10:47:08.407Z,1.40
2019-05-09T10:49:11.500Z,1.40
2019-05-09T10:51:15.354Z,1.67
2019-05-09T10:53:19.250Z,1.83
2019-05-09T10:55:23.074Z,1.60
2019-05-09T10:57:31.469Z,1.70
2019-05-09T10:59:32.524Z,1.43
2019-05-09T11:01:38.317Z,1.70
2019-05-09T11:03:42.536Z,1.40
2019-05-09T11:05:46.276Z,1.33
2019-05-09T11:07:50.160Z,1.50
2019-05-09T11:09:54.081Z,1.30
2019-05-09T11:12:01.039Z,1.40
2019-05-09T11:14:03.410Z,1.30
2019-05-09T11:16:07.778Z,1.40
2019-05-09T11:18:11.796Z,1.33
2019-05-09T11:20:19.137Z,1.30
2019-05-09T11:22:23.440Z,1.47
2019-05-09T11:24:41.437Z,1.20
2019-05-09T11:26:32.311Z,1.40
2019-05-09T11:28:36.206Z,1.30
2019-05-09T11:30:40.055Z,1.47
2019-05-09T11:32:43.972Z,1.60
2019-05-09T11:34:48.598Z,1.90
2019-05-09T11:36:52.736Z,1.40
2019-05-09T11:39:00.152Z,1.70
2019-05-09T11:41:02.355Z,1.33
2019-05-09T11:43:06.230Z,1.33
2019-05-09T11:45:10.256Z,1.73
2019-05-09T11:47:30.926Z,1.57
2019-05-09T11:49:19.658Z,1.23
2019-05-09T11:51:23.563Z,1.40
2019-05-09T11:53:28.835Z,1.40
2019-05-09T11:55:36.539Z,1.20
2019-05-09T11:57:39.774Z,1.30
2019-05-09T11:59:43.723Z,1.13
2019-05-09T12:01:48.291Z,1.77
2019-05-09T12:03:52.640Z,1.33
2019-05-09T12:05:58.306Z,1.60
2019-05-09T12:08:02.202Z,1.47
2019-05-09T12:10:07.870Z,1.20
2019-05-09T12:12:11.876Z,1.30
2019-05-09T12:14:15.677Z,0.87
2019-05-09T12:16:19.584Z,1.10
2019-05-09T12:18:23.473Z,1.33
2019-05-09T12:20:27.931Z,1.30
2019-05-09T12:22:31.834Z,1.20
2019-05-09T12:24:38.249Z,1.30
2019-05-09T12:26:41.419Z,1.33
2019-05-09T12:28:47.824Z,1.40
2019-05-09T12:30:50.868Z,1.40
2019-05-09T12:32:54.705Z,1.13
2019-05-09T12:34:58.601Z,1.30
2019-05-09T12:37:02.604Z,1.23
2019-05-09T12:39:08.760Z,1.30
2019-05-09T12:41:13.014Z,1.20
2019-05-09T12:43:18.542Z,1.20
2019-05-09T12:45:22.709Z,1.30
2019-05-09T12:47:29.170Z,1.67
2019-05-09T12:49:33.260Z,1.30
2019-05-09T12:51:37.707Z,1.30
2019-05-09T12:53:41.535Z,1.33
2019-05-09T12:55:47.712Z,1.40
2019-05-09T12:57:51.526Z,1.73
2019-05-09T12:59:55.094Z,1.50
2019-05-09T13:01:58.834Z,1.40
2019-05-09T13:04:02.506Z,1.50
2019-05-09T13:06:08.023Z,1.47
2019-05-09T13:08:11.472Z,1.23
2019-05-09T13:10:15.215Z,1.30
2019-05-09T13:12:18.956Z,1.30
2019-05-09T13:14:22.604Z,1.30
2019-05-09T13:16:49.119Z,1.30
2019-05-09T13:19:06.365Z,1.50
2019-05-09T13:21:10.065Z,1.47
2019-05-09T13:23:13.836Z,1.30
2019-05-09T13:25:18.891Z,1.47
2019-05-09T13:27:22.877Z,1.47
2019-05-09T13:29:29.617Z,1.37
2019-05-09T13:31:34.741Z,1.37
2019-05-09T13:33:41.395Z,1.40
2019-05-09T13:35:44.135Z,1.57
2019-05-09T13:37:49.141Z,1.53
2019-05-09T13:39:53.110Z,1.30
2019-05-09T13:41:58.257Z,1.10
2019-05-09T13:44:05.464Z,1.30
2019-05-09T13:46:08.975Z,1.30
2019-05-09T13:48:27.032Z,1.23
2019-05-09T13:50:18.770Z,1.20
2019-05-09T13:52:22.773Z,1.13
2019-05-09T13:54:28.569Z,1.10
2019-05-09T13:56:31.754Z,1.07
2019-05-09T13:58:35.449Z,1.00
2019-05-09T14:00:54.726Z,1.60
2019-05-09T14:02:45.053Z,1.50
2019-05-09T14:04:49.090Z,1.27
2019-05-09T14:06:52.687Z,1.40
2019-05-09T14:08:59.432Z,1.30
2019-05-09T14:11:01.602Z,1.30
2019-05-09T14:13:10.063Z,1.53
2019-05-09T14:15:10.682Z,1.60
2019-05-09T14:17:14.522Z,1.90
2019-05-09T14:19:36.024Z,1.80
2019-05-09T14:21:24.626Z,1.20
2019-05-09T14:23:35.981Z,1.50
2019-05-09T14:25:33.651Z,1.30
2019-05-09T14:27:37.622Z,1.30
2019-05-09T14:29:41.382Z,1.30
2019-05-09T14:31:45.101Z,1.30
2019-05-09T14:33:48.886Z,1.20
2019-05-09T14:35:52.557Z,1.00
2019-05-09T14:37:56.105Z,1.20
2019-05-09T14:40:04.158Z,1.27
2019-05-09T14:42:05.272Z,1.00
2019-05-09T14:44:09.599Z,1.00
2019-05-09T14:46:13.425Z,1.13
2019-05-09T14:48:18.891Z,1.10
2019-05-09T14:50:22.524Z,1.20
2019-05-09T14:52:28.246Z,1.43
2019-05-09T14:54:31.506Z,1.20
2019-05-09T14:56:35.190Z,1.37
2019-05-09T14:58:38.997Z,1.40
2019-05-09T15:00:43.092Z,1.37
2019-05-09T15:02:48.902Z,1.13
2019-05-09T15:04:52.111Z,1.23
2019-05-09T15:06:57.825Z,1.60
2019-05-09T15:09:01.203Z,1.50
2019-05-09T15:11:04.973Z,1.60
2019-05-09T15:13:09.107Z,1.60
2019-05-09T15:15:13.317Z,2.30
2019-05-09T15:17:18.536Z,2.10
2019-05-09T15:19:22.479Z,1.67
2019-05-09T15:21:26.161Z,1.60
2019-05-09T15:23:29.889Z,1.30
2019-05-09T15:25:33.608Z,1.67
2019-05-09T15:27:38.503Z,1.40
2019-05-09T15:29:42.621Z,1.43
2019-05-09T15:31:52.964Z,1.30
2019-05-09T15:33:51.775Z,1.23
2019-05-09T15:35:55.428Z,1.40
2019-05-09T15:37:59.272Z,1.00
2019-05-09T15:40:02.964Z,1.20
2019-05-09T15:42:07.412Z,1.30
2019-05-09T15:44:11.151Z,1.50
2019-05-09T15:46:19.391Z,1.47
2019-05-09T15:48:23.185Z,1.40
2019-05-09T15:50:27.833Z,1.63
2019-05-09T15:52:31.607Z,1.40
2019-05-09T15:54:35.348Z,1.33
2019-05-09T15:56:39.020Z,1.37
2019-05-09T15:58:42.678Z,1.50
2019-05-09T16:00:47.786Z,1.30
2019-05-09T16:02:51.644Z,1.40
2019-05-09T16:04:55.266Z,1.33
2019-05-09T16:06:59.001Z,1.30
2019-05-09T16:09:02.744Z,1.50
2019-05-09T16:11:08.718Z,1.50
2019-05-09T16:13:11.828Z,1.10
2019-05-09T16:15:18.057Z,1.50
2019-05-09T16:17:20.976Z,1.40
2019-05-09T16:19:24.645Z,1.10
2019-05-09T16:21:28.329Z,1.40
2019-05-09T16:23:32.084Z,1.40
2019-05-09T16:25:35.725Z,1.50
2019-05-09T16:27:39.381Z,1.37
2019-05-09T16:29:43.123Z,1.30
2019-05-09T16:31:48.104Z,1.50
2019-05-09T16:33:51.881Z,1.10
2019-05-09T16:35:55.633Z,1.00
2019-05-09T16:38:06.516Z,1.10
2019-05-09T16:40:08.456Z,1.20
2019-05-09T16:42:12.067Z,1.30
2019-05-09T16:44:18.283Z,1.10
2019-05-09T16:46:21.593Z,1.20
2019-05-09T16:48:27.515Z,1.20
2019-05-09T16:50:30.476Z,1.37
2019-05-09T16:52:34.669Z,1.70
2019-05-09T16:54:39.926Z,1.70
2019-05-09T16:56:43.629Z,1.40
2019-05-09T16:58:48.187Z,1.20
2019-05-09T17:00:53.141Z,1.10
2019-05-09T17:02:57.439Z,1.53
2019-05-09T17:05:01.212Z,1.07
2019-05-09T17:07:04.896Z,1.20
2019-05-09T17:09:11.617Z,1.27
2019-05-09T17:11:18.947Z,1.77
2019-05-09T17:13:20.684Z,1.30
2019-05-09T17:15:25.827Z,1.37
2019-05-09T17:17:29.674Z,1.80
2019-05-09T17:19:33.348Z,1.50
2019-05-09T17:21:41.476Z,1.27
2019-05-09T17:23:47.593Z,1.90
2019-05-09T17:25:51.536Z,2.23
2019-05-09T17:27:56.841Z,2.80
2019-05-09T17:30:00.548Z,2.57
2019-05-09T17:32:04.328Z,3.47
2019-05-09T17:34:08.003Z,3.50
2019-05-09T17:36:12.073Z,2.40
2019-05-09T17:38:17.892Z,3.87
2019-05-09T17:40:22.855Z,2.60
2019-05-09T17:42:27.730Z,2.33
2019-05-09T17:44:31.500Z,2.00
2019-05-09T17:46:35.251Z,3.33
2019-05-09T17:48:39.002Z,3.20
2019-05-09T17:50:42.798Z,2.20
2019-05-09T17:52:48.130Z,2.10
2019-05-09T17:54:51.903Z,2.40
2019-05-09T17:56:57.297Z,2.03
2019-05-09T17:59:01.212Z,2.00
2019-05-09T18:01:05.005Z,2.80
2019-05-09T18:03:08.808Z,2.73
2019-05-09T18:05:13.400Z,2.60
2019-05-09T18:07:18.004Z,2.03
2019-05-09T18:09:22.126Z,2.03
2019-05-09T18:11:25.834Z,1.73
2019-05-09T18:13:31.345Z,1.80
2019-05-09T18:15:34.956Z,1.80
2019-05-09T18:17:38.692Z,2.30
2019-05-09T18:19:42.876Z,4.93
2019-05-09T18:21:51.029Z,2.77
2019-05-09T18:23:52.805Z,1.77
2019-05-09T18:25:58.512Z,1.87
2019-05-09T18:28:01.934Z,1.70
2019-05-09T18:30:09.407Z,1.93
2019-05-09T18:32:20.631Z,2.03
2019-05-09T18:34:24.370Z,2.70
2019-05-09T18:36:28.299Z,2.83
2019-05-09T18:38:34.045Z,2.57
2019-05-09T18:40:37.761Z,4.37
2019-05-09T18:42:41.492Z,2.70
2019-05-09T18:44:47.500Z,6.23
2019-05-09T18:46:50.607Z,2.10
2019-05-09T18:48:54.403Z,1.83
2019-05-09T18:50:58.192Z,2.93
2019-05-09T18:53:01.950Z,2.30
2019-05-09T18:55:08.165Z,3.03
2019-05-09T18:57:11.941Z,1.80
2019-05-09T18:59:15.681Z,1.97
2019-05-09T19:01:19.333Z,1.90
2019-05-09T19:03:23.083Z,3.50
2019-05-09T19:05:26.766Z,2.27
2019-05-09T19:07:30.579Z,2.20
2019-05-09T19:09:34.213Z,2.10
2019-05-09T19:11:37.965Z,1.80
2019-05-09T19:13:41.692Z,2.03
2019-05-09T19:15:58.311Z,1.80
2019-05-09T19:18:08.786Z,1.80
2019-05-09T19:20:16.937Z,1.97
2019-05-09T19:22:22.662Z,2.30
2019-05-09T19:24:25.989Z,2.60
2019-05-09T19:26:38.824Z,1.90
2019-05-09T19:28:42.697Z,2.10
2019-05-09T19:30:46.432Z,2.37
2019-05-09T19:32:50.117Z,1.80
2019-05-09T19:34:54.914Z,2.30
2019-05-09T19:36:58.553Z,2.63
2019-05-09T19:39:02.227Z,2.23
2019-05-09T19:41:05.907Z,2.60
2019-05-09T19:43:09.558Z,2.77
2019-05-09T19:45:13.316Z,2.40
2019-05-09T19:47:17.490Z,2.53
2019-05-09T19:49:22.394Z,2.93
2019-05-09T19:51:26.503Z,2.70
2019-05-09T19:53:30.143Z,2.90
2019-05-09T19:55:33.844Z,2.60
2019-05-09T19:57:37.603Z,3.00
2019-05-09T19:59:41.313Z,3.50
2019-05-09T20:01:45.029Z,3.50
2019-05-09T20:03:48.703Z,3.10
2019-05-09T20:05:52.329Z,2.93
2019-05-09T20:07:55.996Z,2.73
2019-05-09T20:10:01.281Z,4.13
2019-05-09T20:12:23.495Z,3.30
2019-05-09T20:14:31.466Z,2.50
2019-05-09T20:16:42.889Z,2.83
2019-05-09T20:18:46.745Z,2.80
2019-05-09T20:20:50.423Z,2.80
2019-05-09T20:22:54.072Z,2.80
2019-05-09T20:24:57.799Z,3.07
2019-05-09T20:27:01.550Z,2.90
2019-05-09T20:29:05.362Z,2.93
2019-05-09T20:31:09.575Z,2.50
2019-05-09T20:33:13.598Z,2.53
2019-05-09T20:35:17.388Z,2.70
2019-05-09T20:37:21.179Z,3.37
2019-05-09T20:39:25.264Z,3.00
2019-05-09T20:41:29.242Z,2.60
2019-05-09T20:43:33.074Z,3.47
2019-05-09T20:45:37.151Z,3.00
2019-05-09T20:47:40.997Z,2.67
2019-05-09T20:49:44.927Z,2.57
2019-05-09T20:51:48.847Z,2.70
2019-05-09T20:53:52.601Z,3.70
2019-05-09T20:55:56.470Z,2.50
2019-05-09T20:58:00.951Z,2.73
2019-05-09T21:00:06.752Z,3.13
2019-05-09T21:02:10.677Z,2.23
2019-05-09T21:04:14.449Z,2.63
2019-05-09T21:06:18.578Z,2.77
2019-05-09T21:08:22.714Z,2.70
2019-05-09T21:10:27.057Z,2.70
2019-05-09T21:12:30.986Z,2.80
2019-05-09T21:14:35.193Z,2.73
2019-05-09T21:16:39.063Z,3.00
2019-05-09T21:18:42.860Z,2.80
2019-05-09T21:20:46.763Z,3.17
2019-05-09T21:22:50.583Z,2.77
2019-05-09T21:24:54.842Z,3.10
2019-05-09T21:26:59.543Z,2.70
2019-05-09T21:29:04.082Z,2.83
2019-05-09T21:31:09.755Z,2.73
2019-05-09T21:33:13.502Z,2.50
2019-05-09T21:35:17.546Z,2.87
2019-05-09T21:37:22.196Z,2.60
2019-05-09T21:39:25.891Z,2.50
2019-05-09T21:41:29.541Z,2.30
2019-05-09T21:43:33.257Z,2.20
2019-05-09T21:45:36.893Z,2.40
2019-05-09T21:47:40.599Z,2.70
2019-05-09T21:49:44.315Z,2.20
2019-05-09T21:51:47.966Z,2.53
2019-05-09T21:53:51.656Z,2.37
2019-05-09T21:55:55.325Z,2.30
2019-05-09T21:57:58.972Z,3.00
2019-05-09T22:00:02.612Z,2.70
2019-05-09T22:02:06.325Z,2.63
2019-05-09T22:04:10.179Z,2.50
2019-05-09T22:06:13.902Z,2.30
2019-05-09T22:08:17.586Z,2.53
2019-05-09T22:10:21.235Z,2.43
2019-05-09T22:12:24.926Z,2.57
2019-05-09T22:14:28.687Z,2.50
2019-05-09T22:16:32.406Z,2.50
2019-05-09T22:18:36.027Z,2.80
2019-05-09T22:20:39.688Z,2.90
2019-05-09T22:22:43.414Z,2.40
2019-05-09T22:24:47.102Z,2.60
2019-05-09T22:26:50.692Z,2.33
2019-05-09T22:28:54.351Z,2.60
2019-05-09T22:30:57.998Z,2.43
2019-05-09T22:33:01.723Z,2.90
2019-05-09T22:35:06.306Z,2.70
2019-05-09T22:37:09.967Z,2.43
2019-05-09T22:39:13.705Z,2.80
2019-05-09T22:41:17.298Z,2.63
2019-05-09T22:43:20.987Z,2.50
2019-05-09T22:45:24.778Z,3.23
2019-05-09T22:47:28.451Z,2.60
2019-05-09T22:49:32.212Z,3.30
2019-05-09T22:51:35.884Z,3.27
2019-05-09T22:53:39.586Z,3.83
2019-05-09T22:55:44.860Z,2.90
2019-05-09T22:57:48.540Z,3.57
2019-05-09T22:59:52.240Z,3.97
2019-05-09T23:01:55.845Z,3.57
2019-05-09T23:03:59.553Z,3.43
2019-05-09T23:06:03.274Z,3.67
2019-05-09T23:08:06.854Z,3.40
2019-05-09T23:10:10.629Z,3.77
2019-05-09T23:12:14.204Z,4.10
2019-05-09T23:14:18.042Z,3.60
2019-05-09T23:16:23.254Z,4.00
2019-05-09T23:18:26.813Z,3.43
2019-05-09T23:20:47.225Z,3.70
2019-05-09T23:22:50.796Z,4.07
2019-05-09T23:24:54.590Z,3.63
2019-05-09T23:26:58.227Z,4.30
2019-05-09T23:29:02.034Z,3.87
2019-05-09T23:31:07.284Z,3.77
2019-05-09T23:33:10.872Z,3.80
2019-05-09T23:35:14.562Z,4.53
2019-05-09T23:37:18.270Z,3.70
2019-05-09T23:39:26.553Z,3.87
2019-05-09T23:41:30.391Z,3.70
2019-05-09T23:43:34.078Z,5.27
2019-05-09T23:45:37.759Z,4.17
2019-05-09T23:47:41.343Z,4.40
2019-05-09T23:49:44.949Z,5.00
2019-05-09T23:51:50.327Z,4.73
2019-05-09T23:53:53.236Z,4.87
2019-05-09T23:56:14.935Z,5.23
2019-05-09T23:58:36.536Z,4.10
